PWSweather.com
Personal Weather Stations
Station Observations
KMAMEDFI2
Medfield, MA 02052

Medfield, MA 02052

Lat: 42.1900822, Lon: -71.3296889

Elevation: 138

Station Type: Rainwise WS MK-III

http://www.medfieldweather.com

High Low Average
Temperature 59.2°F15.1°C 40.3°F4.6°C 48.8°F9.3°C
Dew Point 32.4°F0.2°C 23.1°F-4.9°C 29.0°F-1.7°C
Winds 15.0 mph 24.1 kmh Calm Calm 6.0 mph WSW9.7 kmh WSW
Wind Gusts 32.2 mph51.8 kmh -- 11.0 mph17.7 kmh
Humidity 69% 27% 48%
Pressure 30.06 in1017.9 mb 29.61 in1002.7 mb -
Precipitation 0.00 in0.0 mm - -
Hour Temp Dew Point Humidity Winds Wind Gusts Pressure Precip Precip Rate Daily Precip Total
12:00 AM 42.9°F6.1°C 32.0°F0.0°C 65% 15.0 mph WNW24.1 kmh WNW 32.2 mph51.8 kmh 29.61 in1002.7 mb - 0.00 in0.0 mm 0.00 in0.0 mm
12:10 AM 42.9°F6.1°C 32.0°F0.0°C 65% 12.7 mph WSW20.4 kmh WSW 27.6 mph44.4 kmh 29.62 in1003.0 mb - 0.00 in0.0 mm 0.00 in0.0 mm
12:20 AM 42.9°F6.1°C 31.6°F-0.2°C 64% 13.8 mph W22.2 kmh W 18.4 mph29.6 kmh 29.63 in1003.4 mb - 0.00 in0.0 mm 0.00 in0.0 mm
12:30 AM 42.8°F6.0°C 31.8°F-0.1°C 65% 5.8 mph W9.3 kmh W 16.1 mph25.9 kmh 29.63 in1003.4 mb - 0.00 in0.0 mm 0.00 in0.0 mm
12:40 AM 42.5°F5.8°C 31.9°F-0.1°C 66% 5.8 mph WNW9.3 kmh WNW 9.2 mph14.8 kmh 29.63 in1003.4 mb - 0.00 in0.0 mm 0.00 in0.0 mm
12:50 AM 42.6°F5.9°C 32.0°F0.0°C 66% 5.8 mph W9.3 kmh W 15.0 mph24.1 kmh 29.64 in1003.7 mb - 0.00 in0.0 mm 0.00 in0.0 mm
01:00 AM 42.3°F5.7°C 32.1°F0.1°C 67% 6.9 mph W11.1 kmh W 11.5 mph18.5 kmh 29.64 in1003.7 mb - 0.00 in0.0 mm 0.00 in0.0 mm
01:10 AM 42.4°F5.8°C 31.8°F-0.1°C 66% 4.6 mph WSW7.4 kmh WSW 9.2 mph14.8 kmh 29.64 in1003.7 mb - 0.00 in0.0 mm 0.00 in0.0 mm
01:20 AM 42.4°F5.8°C 31.8°F-0.1°C 66% 3.5 mph WNW5.6 kmh WNW 5.8 mph9.3 kmh 29.66 in1004.4 mb - 0.00 in0.0 mm 0.00 in0.0 mm
01:30 AM 42.3°F5.7°C 31.7°F-0.2°C 66% 8.1 mph WSW13.0 kmh WSW 8.1 mph13.0 kmh 29.66 in1004.4 mb - 0.00 in0.0 mm 0.00 in0.0 mm
01:40 AM 41.9°F5.5°C 32.1°F0.1°C 68% 4.6 mph WNW7.4 kmh WNW 3.5 mph5.6 kmh 29.66 in1004.4 mb - 0.00 in0.0 mm 0.00 in0.0 mm
01:50 AM 42.3°F5.7°C 32.1°F0.1°C 67% 8.1 mph W13.0 kmh W 9.2 mph14.8 kmh 29.66 in1004.4 mb - 0.00 in0.0 mm 0.00 in0.0 mm
02:00 AM 42.1°F5.6°C 32.3°F0.2°C 68% 6.9 mph NNW11.1 kmh NNW 10.4 mph16.7 kmh 29.67 in1004.7 mb - 0.00 in0.0 mm 0.00 in0.0 mm
02:10 AM 42.2°F5.7°C 32.4°F0.2°C 68% 5.8 mph WSW9.3 kmh WSW 5.8 mph9.3 kmh 29.68 in1005.1 mb - 0.00 in0.0 mm 0.00 in0.0 mm
02:20 AM 41.9°F5.5°C 32.1°F0.1°C 68% 5.8 mph W9.3 kmh W 8.1 mph13.0 kmh 29.68 in1005.1 mb - 0.00 in0.0 mm 0.00 in0.0 mm
02:30 AM 41.6°F5.3°C 32.2°F0.1°C 69% 6.9 mph W11.1 kmh W 11.5 mph18.5 kmh 29.69 in1005.4 mb - 0.00 in0.0 mm 0.00 in0.0 mm
02:40 AM 41.8°F5.4°C 32.0°F0.0°C 68% 3.5 mph WNW5.6 kmh WNW 2.3 mph3.7 kmh 29.69 in1005.4 mb - 0.00 in0.0 mm 0.00 in0.0 mm
02:50 AM 41.8°F5.4°C 30.9°F-0.6°C 65% 10.4 mph WSW16.7 kmh WSW 16.1 mph25.9 kmh 29.69 in1005.4 mb - 0.00 in0.0 mm 0.00 in0.0 mm
03:00 AM 41.9°F5.5°C 31.7°F-0.2°C 67% 3.5 mph W5.6 kmh W 8.1 mph13.0 kmh 29.69 in1005.4 mb - 0.00 in0.0 mm 0.00 in0.0 mm
03:10 AM 41.9°F5.5°C 29.8°F-1.2°C 62% 8.1 mph SW13.0 kmh SW 9.2 mph14.8 kmh 29.69 in1005.4 mb - 0.00 in0.0 mm 0.00 in0.0 mm
03:20 AM 41.9°F5.5°C 29.8°F-1.2°C 62% 3.5 mph WNW5.6 kmh WNW 3.5 mph5.6 kmh 29.70 in1005.8 mb - 0.00 in0.0 mm 0.00 in0.0 mm
03:30 AM 41.6°F5.3°C 29.9°F-1.2°C 63% 6.9 mph W11.1 kmh W 8.1 mph13.0 kmh 29.70 in1005.8 mb - 0.00 in0.0 mm 0.00 in0.0 mm
03:40 AM 41.6°F5.3°C 30.3°F-0.9°C 64% 6.9 mph WSW11.1 kmh WSW 18.4 mph29.6 kmh 29.70 in1005.8 mb - 0.00 in0.0 mm 0.00 in0.0 mm
03:50 AM 41.6°F5.3°C 29.1°F-1.6°C 61% 6.9 mph WNW11.1 kmh WNW 8.1 mph13.0 kmh 29.70 in1005.8 mb - 0.00 in0.0 mm 0.00 in0.0 mm
04:00 AM 41.6°F5.3°C 28.7°F-1.8°C 60% 8.1 mph W13.0 kmh W 13.8 mph22.2 kmh 29.71 in1006.1 mb - 0.00 in0.0 mm 0.00 in0.0 mm
04:10 AM 41.4°F5.2°C 29.3°F-1.5°C 62% 4.6 mph NW7.4 kmh NW 5.8 mph9.3 kmh 29.72 in1006.4 mb - 0.00 in0.0 mm 0.00 in0.0 mm
04:20 AM 40.9°F4.9°C 30.0°F-1.1°C 65% 4.6 mph WSW7.4 kmh WSW 17.3 mph27.8 kmh 29.72 in1006.4 mb - 0.00 in0.0 mm 0.00 in0.0 mm
04:30 AM 40.7°F4.8°C 29.5°F-1.4°C 64% 4.6 mph WSW7.4 kmh WSW 5.8 mph9.3 kmh 29.73 in1006.8 mb - 0.00 in0.0 mm 0.00 in0.0 mm
04:40 AM 40.5°F4.7°C 29.3°F-1.5°C 64% 2.3 mph SW3.7 kmh SW 3.5 mph5.6 kmh 29.74 in1007.1 mb - 0.00 in0.0 mm 0.00 in0.0 mm
04:50 AM 40.4°F4.7°C 29.2°F-1.6°C 64% 3.5 mph W5.6 kmh W 2.3 mph3.7 kmh 29.74 in1007.1 mb - 0.00 in0.0 mm 0.00 in0.0 mm
05:00 AM 40.3°F4.6°C 29.1°F-1.6°C 64% 9.2 mph WSW14.8 kmh WSW 23.0 mph37.0 kmh 29.75 in1007.5 mb - 0.00 in0.0 mm 0.00 in0.0 mm
05:10 AM 40.4°F4.7°C 28.8°F-1.8°C 63% 3.5 mph WSW5.6 kmh WSW 15.0 mph24.1 kmh 29.76 in1007.8 mb - 0.00 in0.0 mm 0.00 in0.0 mm
05:20 AM 40.5°F4.7°C 28.9°F-1.7°C 63% 5.8 mph W9.3 kmh W 10.4 mph16.7 kmh 29.76 in1007.8 mb - 0.00 in0.0 mm 0.00 in0.0 mm
05:30 AM 40.5°F4.7°C 28.9°F-1.7°C 63% 5.8 mph WSW9.3 kmh WSW 6.9 mph11.1 kmh 29.76 in1007.8 mb - 0.00 in0.0 mm 0.00 in0.0 mm
05:40 AM 40.4°F4.7°C 29.2°F-1.6°C 64% 3.5 mph WSW5.6 kmh WSW 5.8 mph9.3 kmh 29.77 in1008.1 mb - 0.00 in0.0 mm 0.00 in0.0 mm
05:50 AM 40.3°F4.6°C 28.7°F-1.8°C 63% 6.9 mph NW11.1 kmh NW 10.4 mph16.7 kmh 29.78 in1008.5 mb - 0.00 in0.0 mm 0.00 in0.0 mm
06:00 AM 40.5°F4.7°C 28.5°F-1.9°C 62% 5.8 mph WSW9.3 kmh WSW 13.8 mph22.2 kmh 29.78 in1008.5 mb - 0.00 in0.0 mm 0.00 in0.0 mm
06:10 AM 40.7°F4.8°C 27.9°F-2.3°C 60% 8.1 mph WSW13.0 kmh WSW 11.5 mph18.5 kmh 29.79 in1008.8 mb - 0.00 in0.0 mm 0.00 in0.0 mm
06:20 AM 40.9°F4.9°C 27.2°F-2.7°C 58% 11.5 mph W18.5 kmh W 13.8 mph22.2 kmh 29.80 in1009.1 mb - 0.00 in0.0 mm 0.00 in0.0 mm
06:30 AM 41.5°F5.3°C 28.2°F-2.1°C 59% 2.3 mph W3.7 kmh W 5.8 mph9.3 kmh 29.81 in1009.5 mb - 0.00 in0.0 mm 0.00 in0.0 mm
06:40 AM 41.6°F5.3°C 27.9°F-2.3°C 58% 10.4 mph WSW16.7 kmh WSW 15.0 mph24.1 kmh 29.82 in1009.8 mb - 0.00 in0.0 mm 0.00 in0.0 mm
06:50 AM 42.1°F5.6°C 27.9°F-2.3°C 57% 9.2 mph W14.8 kmh W 15.0 mph24.1 kmh 29.82 in1009.8 mb - 0.00 in0.0 mm 0.00 in0.0 mm
07:00 AM 42.6°F5.9°C 28.4°F-2.0°C 57% 6.9 mph NW11.1 kmh NW 10.4 mph16.7 kmh 29.82 in1009.8 mb - 0.00 in0.0 mm 0.00 in0.0 mm
07:10 AM 42.4°F5.8°C 28.2°F-2.1°C 57% 5.8 mph NW9.3 kmh NW 8.1 mph13.0 kmh 29.82 in1009.8 mb - 0.00 in0.0 mm 0.00 in0.0 mm
07:20 AM 42.9°F6.1°C 27.8°F-2.3°C 55% 9.2 mph W14.8 kmh W 11.5 mph18.5 kmh 29.84 in1010.5 mb - 0.00 in0.0 mm 0.00 in0.0 mm
07:30 AM 43.5°F6.4°C 28.4°F-2.0°C 55% 8.1 mph W13.0 kmh W 15.0 mph24.1 kmh 29.84 in1010.5 mb - 0.00 in0.0 mm 0.00 in0.0 mm
07:40 AM 43.9°F6.6°C 28.3°F-2.1°C 54% 9.2 mph W14.8 kmh W 16.1 mph25.9 kmh 29.84 in1010.5 mb - 0.00 in0.0 mm 0.00 in0.0 mm
07:50 AM 44.5°F6.9°C 28.4°F-2.0°C 53% 10.4 mph WSW16.7 kmh WSW 15.0 mph24.1 kmh 29.85 in1010.8 mb - 0.00 in0.0 mm 0.00 in0.0 mm
08:00 AM 44.8°F7.1°C 29.2°F-1.6°C 54% 6.9 mph NW11.1 kmh NW 6.9 mph11.1 kmh 29.85 in1010.8 mb - 0.00 in0.0 mm 0.00 in0.0 mm
08:10 AM 45.2°F7.3°C 29.0°F-1.7°C 53% 11.5 mph WSW18.5 kmh WSW 17.3 mph27.8 kmh 29.86 in1011.2 mb - 0.00 in0.0 mm 0.00 in0.0 mm
08:20 AM 45.9°F7.7°C 29.2°F-1.6°C 52% 6.9 mph NW11.1 kmh NW 9.2 mph14.8 kmh 29.86 in1011.2 mb - 0.00 in0.0 mm 0.00 in0.0 mm
08:30 AM 46.4°F8.0°C 29.7°F-1.3°C 52% 9.2 mph NW14.8 kmh NW 8.1 mph13.0 kmh 29.86 in1011.2 mb - 0.00 in0.0 mm 0.00 in0.0 mm
08:40 AM 46.3°F7.9°C 29.6°F-1.3°C 52% 8.1 mph W13.0 kmh W 17.3 mph27.8 kmh 29.86 in1011.2 mb - 0.00 in0.0 mm 0.00 in0.0 mm
08:50 AM 46.5°F8.1°C 29.8°F-1.2°C 52% 8.1 mph WSW13.0 kmh WSW 16.1 mph25.9 kmh 29.86 in1011.2 mb - 0.00 in0.0 mm 0.00 in0.0 mm
09:00 AM 46.9°F8.3°C 30.2°F-1.0°C 52% 11.5 mph W18.5 kmh W 19.6 mph31.5 kmh 29.86 in1011.2 mb - 0.00 in0.0 mm 0.00 in0.0 mm
09:10 AM 47.2°F8.4°C 29.9°F-1.2°C 51% 9.2 mph WSW14.8 kmh WSW 18.4 mph29.6 kmh 29.87 in1011.5 mb - 0.00 in0.0 mm 0.00 in0.0 mm
09:20 AM 47.9°F8.8°C 29.6°F-1.3°C 49% 8.1 mph NW13.0 kmh NW 11.5 mph18.5 kmh 29.87 in1011.5 mb - 0.00 in0.0 mm 0.00 in0.0 mm
09:30 AM 48.7°F9.3°C 30.3°F-0.9°C 49% 9.2 mph W14.8 kmh W 18.4 mph29.6 kmh 29.88 in1011.9 mb - 0.00 in0.0 mm 0.00 in0.0 mm
09:40 AM 49.0°F9.4°C 30.1°F-1.1°C 48% 6.9 mph WSW11.1 kmh WSW 17.3 mph27.8 kmh 29.88 in1011.9 mb - 0.00 in0.0 mm 0.00 in0.0 mm
09:50 AM 49.7°F9.8°C 29.2°F-1.6°C 45% 10.4 mph SW16.7 kmh SW 19.6 mph31.5 kmh 29.88 in1011.9 mb - 0.00 in0.0 mm 0.00 in0.0 mm
10:00 AM 49.6°F9.8°C 29.6°F-1.3°C 46% 5.8 mph W9.3 kmh W 9.2 mph14.8 kmh 29.89 in1012.2 mb - 0.00 in0.0 mm 0.00 in0.0 mm
10:10 AM 50.3°F10.2°C 29.2°F-1.6°C 44% 12.7 mph WSW20.4 kmh WSW 15.0 mph24.1 kmh 29.89 in1012.2 mb - 0.00 in0.0 mm 0.00 in0.0 mm
10:20 AM 50.7°F10.4°C 30.1°F-1.1°C 45% 6.9 mph NW11.1 kmh NW 16.1 mph25.9 kmh 29.89 in1012.2 mb - 0.00 in0.0 mm 0.00 in0.0 mm
10:30 AM 50.8°F10.4°C 29.6°F-1.3°C 44% 6.9 mph W11.1 kmh W 18.4 mph29.6 kmh 29.89 in1012.2 mb - 0.00 in0.0 mm 0.00 in0.0 mm
10:40 AM 51.7°F10.9°C 28.7°F-1.8°C 41% 3.5 mph SE5.6 kmh SE 5.8 mph9.3 kmh 29.89 in1012.2 mb - 0.00 in0.0 mm 0.00 in0.0 mm
10:50 AM 52.3°F11.3°C 31.0°F-0.6°C 44% 9.2 mph W14.8 kmh W 15.0 mph24.1 kmh 29.89 in1012.2 mb - 0.00 in0.0 mm 0.00 in0.0 mm
11:00 AM 52.3°F11.3°C 31.0°F-0.6°C 44% 5.8 mph NW9.3 kmh NW 9.2 mph14.8 kmh 29.90 in1012.5 mb - 0.00 in0.0 mm 0.00 in0.0 mm
11:10 AM 53.2°F11.8°C 31.3°F-0.4°C 43% 8.1 mph WNW13.0 kmh WNW 23.0 mph37.0 kmh 29.89 in1012.2 mb - 0.00 in0.0 mm 0.00 in0.0 mm
11:20 AM 53.2°F11.8°C 30.7°F-0.7°C 42% 10.4 mph W16.7 kmh W 11.5 mph18.5 kmh 29.89 in1012.2 mb - 0.00 in0.0 mm 0.00 in0.0 mm
11:30 AM 52.9°F11.6°C 29.8°F-1.2°C 41% 12.7 mph WSW20.4 kmh WSW 15.0 mph24.1 kmh 29.89 in1012.2 mb - 0.00 in0.0 mm 0.00 in0.0 mm
11:40 AM 52.9°F11.6°C 30.4°F-0.9°C 42% 9.2 mph W14.8 kmh W 11.5 mph18.5 kmh 29.89 in1012.2 mb - 0.00 in0.0 mm 0.00 in0.0 mm
11:50 AM 53.5°F11.9°C 30.4°F-0.9°C 41% 10.4 mph W16.7 kmh W 9.2 mph14.8 kmh 29.89 in1012.2 mb - 0.00 in0.0 mm 0.00 in0.0 mm
12:00 PM 53.6°F12.0°C 31.6°F-0.2°C 43% 4.6 mph NW7.4 kmh NW 6.9 mph11.1 kmh 29.89 in1012.2 mb - 0.00 in0.0 mm 0.00 in0.0 mm
12:10 PM 54.0°F12.2°C 30.2°F-1.0°C 40% 9.2 mph SW14.8 kmh SW 15.0 mph24.1 kmh 29.89 in1012.2 mb - 0.00 in0.0 mm 0.00 in0.0 mm
12:20 PM 54.5°F12.5°C 29.4°F-1.4°C 38% 12.7 mph WSW20.4 kmh WSW 23.0 mph37.0 kmh 29.89 in1012.2 mb - 0.00 in0.0 mm 0.00 in0.0 mm
12:30 PM 55.0°F12.8°C 31.7°F-0.2°C 41% 5.8 mph W9.3 kmh W 13.8 mph22.2 kmh 29.89 in1012.2 mb - 0.00 in0.0 mm 0.00 in0.0 mm
12:40 PM 54.6°F12.6°C 30.2°F-1.0°C 39% 13.8 mph WSW22.2 kmh WSW 15.0 mph24.1 kmh 29.90 in1012.5 mb - 0.00 in0.0 mm 0.00 in0.0 mm
12:50 PM 54.5°F12.5°C 30.7°F-0.7°C 40% 5.8 mph SW9.3 kmh SW 9.2 mph14.8 kmh 29.90 in1012.5 mb - 0.00 in0.0 mm 0.00 in0.0 mm
01:00 PM 55.6°F13.1°C 31.6°F-0.2°C 40% 10.4 mph W16.7 kmh W 13.8 mph22.2 kmh 29.90 in1012.5 mb - 0.00 in0.0 mm 0.00 in0.0 mm
01:10 PM 56.3°F13.5°C 31.6°F-0.2°C 39% 9.2 mph WSW14.8 kmh WSW 18.4 mph29.6 kmh 29.89 in1012.2 mb - 0.00 in0.0 mm 0.00 in0.0 mm
01:20 PM 56.3°F13.5°C 31.0°F-0.6°C 38% 6.9 mph W11.1 kmh W 11.5 mph18.5 kmh 29.89 in1012.2 mb - 0.00 in0.0 mm 0.00 in0.0 mm
01:30 PM 56.9°F13.8°C 31.5°F-0.3°C 38% 8.1 mph WNW13.0 kmh WNW 15.0 mph24.1 kmh 29.90 in1012.5 mb - 0.00 in0.0 mm 0.00 in0.0 mm
01:40 PM 56.6°F13.7°C 31.3°F-0.4°C 38% 5.8 mph SW9.3 kmh SW 17.3 mph27.8 kmh 29.89 in1012.2 mb - 0.00 in0.0 mm 0.00 in0.0 mm
01:50 PM 56.7°F13.7°C 29.3°F-1.5°C 35% 10.4 mph WSW16.7 kmh WSW 23.0 mph37.0 kmh 29.89 in1012.2 mb - 0.00 in0.0 mm 0.00 in0.0 mm
02:00 PM 57.4°F14.1°C 30.0°F-1.1°C 35% 6.9 mph WSW11.1 kmh WSW 16.1 mph25.9 kmh 29.88 in1011.9 mb - 0.00 in0.0 mm 0.00 in0.0 mm
02:10 PM 57.5°F14.2°C 29.3°F-1.5°C 34% 10.4 mph WSW16.7 kmh WSW 17.3 mph27.8 kmh 29.88 in1011.9 mb - 0.00 in0.0 mm 0.00 in0.0 mm
02:20 PM 57.5°F14.2°C 30.0°F-1.1°C 35% 9.2 mph WSW14.8 kmh WSW 18.4 mph29.6 kmh 29.88 in1011.9 mb - 0.00 in0.0 mm 0.00 in0.0 mm
02:30 PM 58.1°F14.5°C 29.8°F-1.2°C 34% 9.2 mph W14.8 kmh W 17.3 mph27.8 kmh 29.88 in1011.9 mb - 0.00 in0.0 mm 0.00 in0.0 mm
02:40 PM 58.4°F14.7°C 29.4°F-1.4°C 33% 9.2 mph W14.8 kmh W 16.1 mph25.9 kmh 29.88 in1011.9 mb - 0.00 in0.0 mm 0.00 in0.0 mm
02:50 PM 58.9°F14.9°C 29.8°F-1.2°C 33% 6.9 mph W11.1 kmh W 11.5 mph18.5 kmh 29.89 in1012.2 mb - 0.00 in0.0 mm 0.00 in0.0 mm
03:00 PM 59.0°F15.0°C 29.1°F-1.6°C 32% 9.2 mph NW14.8 kmh NW 17.3 mph27.8 kmh 29.88 in1011.9 mb - 0.00 in0.0 mm 0.00 in0.0 mm
03:10 PM 58.6°F14.8°C 29.6°F-1.3°C 33% 6.9 mph W11.1 kmh W 19.6 mph31.5 kmh 29.89 in1012.2 mb - 0.00 in0.0 mm 0.00 in0.0 mm
03:20 PM 59.2°F15.1°C 28.6°F-1.9°C 31% 8.1 mph WNW13.0 kmh WNW 19.6 mph31.5 kmh 29.89 in1012.2 mb - 0.00 in0.0 mm 0.00 in0.0 mm
03:30 PM 59.0°F15.0°C 26.7°F-2.9°C 29% 10.4 mph W16.7 kmh W 23.0 mph37.0 kmh 29.89 in1012.2 mb - 0.00 in0.0 mm 0.00 in0.0 mm
03:40 PM 58.7°F14.8°C 28.1°F-2.2°C 31% 8.1 mph WSW13.0 kmh WSW 11.5 mph18.5 kmh 29.89 in1012.2 mb - 0.00 in0.0 mm 0.00 in0.0 mm
03:50 PM 59.0°F15.0°C 25.9°F-3.4°C 28% 10.4 mph W16.7 kmh W 16.1 mph25.9 kmh 29.89 in1012.2 mb - 0.00 in0.0 mm 0.00 in0.0 mm
04:00 PM 59.1°F15.1°C 26.8°F-2.9°C 29% 8.1 mph WSW13.0 kmh WSW 10.4 mph16.7 kmh 29.89 in1012.2 mb - 0.00 in0.0 mm 0.00 in0.0 mm
04:10 PM 58.9°F14.9°C 27.5°F-2.5°C 30% 9.2 mph WNW14.8 kmh WNW 9.2 mph14.8 kmh 29.90 in1012.5 mb - 0.00 in0.0 mm 0.00 in0.0 mm
04:20 PM 58.4°F14.7°C 27.9°F-2.3°C 31% 5.8 mph WSW9.3 kmh WSW 27.6 mph44.4 kmh 29.90 in1012.5 mb - 0.00 in0.0 mm 0.00 in0.0 mm
04:30 PM 58.1°F14.5°C 26.8°F-2.9°C 30% 10.4 mph W16.7 kmh W 11.5 mph18.5 kmh 29.90 in1012.5 mb - 0.00 in0.0 mm 0.00 in0.0 mm
04:40 PM 57.9°F14.4°C 27.4°F-2.6°C 31% 5.8 mph W9.3 kmh W 10.4 mph16.7 kmh 29.92 in1013.2 mb - 0.00 in0.0 mm 0.00 in0.0 mm
04:50 PM 57.9°F14.4°C 25.8°F-3.4°C 29% 5.8 mph WSW9.3 kmh WSW 6.9 mph11.1 kmh 29.91 in1012.9 mb - 0.00 in0.0 mm 0.00 in0.0 mm
05:00 PM 58.0°F14.4°C 25.1°F-3.8°C 28% 8.1 mph WSW13.0 kmh WSW 11.5 mph18.5 kmh 29.91 in1012.9 mb - 0.00 in0.0 mm 0.00 in0.0 mm
05:10 PM 57.7°F14.3°C 24.8°F-4.0°C 28% 4.6 mph WNW7.4 kmh WNW 9.2 mph14.8 kmh 29.91 in1012.9 mb - 0.00 in0.0 mm 0.00 in0.0 mm
05:20 PM 57.3°F14.1°C 24.4°F-4.2°C 28% 8.1 mph WNW13.0 kmh WNW 11.5 mph18.5 kmh 29.92 in1013.2 mb - 0.00 in0.0 mm 0.00 in0.0 mm
05:30 PM 56.9°F13.8°C 23.2°F-4.9°C 27% 9.2 mph WSW14.8 kmh WSW 15.0 mph24.1 kmh 29.92 in1013.2 mb - 0.00 in0.0 mm 0.00 in0.0 mm
05:40 PM 56.5°F13.6°C 23.7°F-4.6°C 28% 6.9 mph W11.1 kmh W 11.5 mph18.5 kmh 29.92 in1013.2 mb - 0.00 in0.0 mm 0.00 in0.0 mm
05:50 PM 56.2°F13.4°C 24.3°F-4.3°C 29% 3.5 mph WSW5.6 kmh WSW 5.8 mph9.3 kmh 29.92 in1013.2 mb - 0.00 in0.0 mm 0.00 in0.0 mm
06:00 PM 55.7°F13.2°C 23.1°F-4.9°C 28% 6.9 mph SW11.1 kmh SW 8.1 mph13.0 kmh 29.92 in1013.2 mb - 0.00 in0.0 mm 0.00 in0.0 mm
06:10 PM 55.3°F12.9°C 23.5°F-4.7°C 29% 2.3 mph NW3.7 kmh NW 2.3 mph3.7 kmh 29.92 in1013.2 mb - 0.00 in0.0 mm 0.00 in0.0 mm
06:20 PM 54.9°F12.7°C 24.8°F-4.0°C 31% 4.6 mph W7.4 kmh W 9.2 mph14.8 kmh 29.92 in1013.2 mb - 0.00 in0.0 mm 0.00 in0.0 mm
06:30 PM 54.5°F12.5°C 24.4°F-4.2°C 31% 3.5 mph SW5.6 kmh SW 5.8 mph9.3 kmh 29.92 in1013.2 mb - 0.00 in0.0 mm 0.00 in0.0 mm
06:40 PM 54.0°F12.2°C 24.0°F-4.4°C 31% 4.6 mph NW7.4 kmh NW 2.3 mph3.7 kmh 29.92 in1013.2 mb - 0.00 in0.0 mm 0.00 in0.0 mm
06:50 PM 53.6°F12.0°C 25.1°F-3.8°C 33% 2.3 mph WSW3.7 kmh WSW 5.8 mph9.3 kmh 29.93 in1013.5 mb - 0.00 in0.0 mm 0.00 in0.0 mm
07:00 PM 52.7°F11.5°C 26.5°F-3.1°C 36% 3.5 mph WSW5.6 kmh WSW 5.8 mph9.3 kmh 29.94 in1013.9 mb - 0.00 in0.0 mm 0.00 in0.0 mm
07:10 PM 52.2°F11.2°C 27.3°F-2.6°C 38% 1.2 mph NNE1.9 kmh NNE 2.3 mph3.7 kmh 29.95 in1014.2 mb - 0.00 in0.0 mm 0.00 in0.0 mm
07:20 PM 52.2°F11.2°C 26.7°F-2.9°C 37% 5.8 mph WSW9.3 kmh WSW 8.1 mph13.0 kmh 29.95 in1014.2 mb - 0.00 in0.0 mm 0.00 in0.0 mm
07:30 PM 52.1°F11.2°C 27.2°F-2.7°C 38% 3.5 mph WSW5.6 kmh WSW 6.9 mph11.1 kmh 29.95 in1014.2 mb - 0.00 in0.0 mm 0.00 in0.0 mm
07:40 PM 52.4°F11.3°C 26.8°F-2.9°C 37% 3.5 mph W5.6 kmh W 5.8 mph9.3 kmh 29.95 in1014.2 mb - 0.00 in0.0 mm 0.00 in0.0 mm
07:50 PM 52.2°F11.2°C 26.7°F-2.9°C 37% 4.6 mph WNW7.4 kmh WNW 6.9 mph11.1 kmh 29.97 in1014.9 mb - 0.00 in0.0 mm 0.00 in0.0 mm
08:00 PM 51.9°F11.1°C 25.8°F-3.4°C 36% 5.8 mph WSW9.3 kmh WSW 8.1 mph13.0 kmh 29.98 in1015.2 mb - 0.00 in0.0 mm 0.00 in0.0 mm
08:10 PM 51.4°F10.8°C 27.2°F-2.7°C 39% 2.3 mph W3.7 kmh W 5.8 mph9.3 kmh 29.99 in1015.6 mb - 0.00 in0.0 mm 0.00 in0.0 mm
08:20 PM 50.3°F10.2°C 27.5°F-2.5°C 41% 3.5 mph WSW5.6 kmh WSW 5.8 mph9.3 kmh 29.98 in1015.2 mb - 0.00 in0.0 mm 0.00 in0.0 mm
08:30 PM 49.9°F9.9°C 25.9°F-3.4°C 39% 3.5 mph WSW5.6 kmh WSW 5.8 mph9.3 kmh 29.98 in1015.2 mb - 0.00 in0.0 mm 0.00 in0.0 mm
08:40 PM 49.6°F9.8°C 26.2°F-3.2°C 40% 4.6 mph W7.4 kmh W 3.5 mph5.6 kmh 29.99 in1015.6 mb - 0.00 in0.0 mm 0.00 in0.0 mm
08:50 PM 49.3°F9.6°C 26.6°F-3.0°C 41% 2.3 mph W3.7 kmh W 2.3 mph3.7 kmh 29.99 in1015.6 mb - 0.00 in0.0 mm 0.00 in0.0 mm
09:00 PM 48.8°F9.3°C 26.7°F-2.9°C 42% 3.5 mph WSW5.6 kmh WSW 2.3 mph3.7 kmh 29.99 in1015.6 mb - 0.00 in0.0 mm 0.00 in0.0 mm
09:10 PM 48.9°F9.4°C 26.8°F-2.9°C 42% 2.3 mph W3.7 kmh W 2.3 mph3.7 kmh 30.00 in1015.9 mb - 0.00 in0.0 mm 0.00 in0.0 mm
09:20 PM 48.4°F9.1°C 27.5°F-2.5°C 44% 1.2 mph NW1.9 kmh NW 2.3 mph3.7 kmh 30.01 in1016.3 mb - 0.00 in0.0 mm 0.00 in0.0 mm
09:30 PM 46.8°F8.2°C 26.6°F-3.0°C 45% 1.2 mph ENE1.9 kmh ENE 2.3 mph3.7 kmh 30.01 in1016.3 mb - 0.00 in0.0 mm 0.00 in0.0 mm
09:40 PM 46.4°F8.0°C 28.7°F-1.8°C 50% 2.3 mph SSE3.7 kmh SSE 2.3 mph3.7 kmh 30.01 in1016.3 mb - 0.00 in0.0 mm 0.00 in0.0 mm
09:50 PM 46.1°F7.8°C 29.0°F-1.7°C 51% 1.2 mph NW1.9 kmh NW 2.3 mph3.7 kmh 30.01 in1016.3 mb - 0.00 in0.0 mm 0.00 in0.0 mm
10:00 PM 46.3°F7.9°C 29.6°F-1.3°C 52% 1.2 mph ENE1.9 kmh ENE 2.3 mph3.7 kmh 30.02 in1016.6 mb - 0.00 in0.0 mm 0.00 in0.0 mm
10:10 PM 45.6°F7.6°C 30.4°F-0.9°C 55% 1.2 mph S1.9 kmh S -- 30.03 in1016.9 mb - 0.00 in0.0 mm 0.00 in0.0 mm
10:20 PM 44.9°F7.2°C 29.7°F-1.3°C 55% 1.2 mph NW1.9 kmh NW -- 30.04 in1017.3 mb - 0.00 in0.0 mm 0.00 in0.0 mm
10:30 PM 44.6°F7.0°C 30.3°F-0.9°C 57% 1.2 mph E1.9 kmh E 2.3 mph3.7 kmh 30.04 in1017.3 mb - 0.00 in0.0 mm 0.00 in0.0 mm
10:40 PM 44.3°F6.8°C 30.0°F-1.1°C 57% 3.5 mph W5.6 kmh W 2.3 mph3.7 kmh 30.04 in1017.3 mb - 0.00 in0.0 mm 0.00 in0.0 mm
10:50 PM 43.9°F6.6°C 30.5°F-0.8°C 59% Calm Calm -- 30.05 in1017.6 mb - 0.00 in0.0 mm 0.00 in0.0 mm
11:20 PM 43.4°F6.3°C 30.4°F-0.9°C 60% 3.5 mph W5.6 kmh W 5.8 mph9.3 kmh 30.05 in1017.6 mb - 0.00 in0.0 mm 0.00 in0.0 mm
11:30 PM 43.4°F6.3°C 30.9°F-0.6°C 61% Calm Calm -- 30.05 in1017.6 mb - 0.00 in0.0 mm 0.00 in0.0 mm
11:40 PM 43.4°F6.3°C 31.2°F-0.4°C 62% Calm Calm 1.2 mph1.9 kmh 30.06 in1017.9 mb - 0.00 in0.0 mm 0.00 in0.0 mm
11:50 PM 43.4°F6.3°C 31.2°F-0.4°C 62% 1.2 mph W1.9 kmh W 2.3 mph3.7 kmh 30.06 in1017.9 mb - 0.00 in0.0 mm 0.00 in0.0 mm